ASA5 KDCA-KLAX
Flight info
| Callsign | ASA5 |
|---|---|
| Flight time | 5h 29m |
| Altitude | 32000 |
| Route | REBLL5 OTTTO Q176 CIM J96 DRK J231 HIPPI GABBL HLYWD1 |
| Aircraft | B738/M-SDE2E3FGHIRWXY/LB1 |
Departure
| Time | 2026-04-25 13:01 |
|---|---|
| Airport | Ronald Reagan Washington National Airport (KDCA) |
Arrival
| Time | 2026-04-25 18:30 |
|---|---|
| Airport | Los Angeles International Airport (KLAX) |
| Time | Latitude | Longitude | Altitude | Speed | Heading |
|---|---|---|---|---|---|
| 2026-04-25 12:31 | 38.85148 | -77.04098 | 23 ft | 0 kts | 320° |
| 2026-04-25 12:51 | 38.85137 | -77.04085 | 27 ft | 3 kts | 321° |
| 2026-04-25 12:52 | 38.85121 | -77.04069 | 24 ft | 3 kts | 313° |
| 2026-04-25 12:52 | 38.85111 | -77.04049 | 28 ft | 3 kts | 281° |
| 2026-04-25 12:52 | 38.85110 | -77.04029 | 24 ft | 3 kts | 272° |
| 2026-04-25 12:52 | 38.85108 | -77.04004 | 27 ft | 3 kts | 282° |
| 2026-04-25 12:53 | 38.85102 | -77.03981 | 24 ft | 3 kts | 311° |
| 2026-04-25 12:53 | 38.85089 | -77.03970 | 26 ft | 1 kts | 355° |
| 2026-04-25 12:56 | 38.85095 | -77.03971 | 27 ft | 3 kts | 355° |
| 2026-04-25 12:57 | 38.85123 | -77.03974 | 25 ft | 1 kts | 355° |
| 2026-04-25 12:57 | 38.85138 | -77.03961 | 24 ft | 6 kts | 41° |
| 2026-04-25 12:57 | 38.85206 | -77.03927 | 24 ft | 15 kts | 2° |
| 2026-04-25 12:57 | 38.85337 | -77.03935 | 24 ft | 21 kts | 355° |
| 2026-04-25 12:58 | 38.85475 | -77.03948 | 26 ft | 20 kts | 355° |
| 2026-04-25 12:58 | 38.85610 | -77.03961 | 26 ft | 19 kts | 355° |
| 2026-04-25 12:58 | 38.85744 | -77.03976 | 26 ft | 19 kts | 355° |
| 2026-04-25 12:58 | 38.85871 | -77.03988 | 25 ft | 18 kts | 356° |
| 2026-04-25 12:59 | 38.85992 | -77.03960 | 25 ft | 17 kts | 15° |
| 2026-04-25 12:59 | 38.86084 | -77.03911 | 25 ft | 12 kts | 56° |
| 2026-04-25 12:59 | 38.86064 | -77.03868 | 24 ft | 6 kts | 172° |
| 2026-04-25 12:59 | 38.86043 | -77.03866 | 23 ft | 0 kts | 176° |
| 2026-04-25 13:00 | 38.86031 | -77.03865 | 26 ft | 8 kts | 176° |
| 2026-04-25 13:00 | 38.86003 | -77.03862 | 23 ft | 15 kts | 176° |
| 2026-04-25 13:00 | 38.85126 | -77.03774 | 23 ft | 137 kts | 175° |
| 2026-04-25 13:00 | 38.84002 | -77.03622 | 252 ft | 177 kts | 171° |
| 2026-04-25 13:01 | 38.82785 | -77.03525 | 1208 ft | 173 kts | 176° |
| 2026-04-25 13:01 | 38.82008 | -77.03542 | 1967 ft | 165 kts | 176° |
| 2026-04-25 13:01 | 38.80410 | -77.03550 | 2774 ft | 184 kts | 178° |
| 2026-04-25 13:01 | 38.79040 | -77.03534 | 2985 ft | 210 kts | 179° |
| 2026-04-25 13:02 | 38.77514 | -77.03531 | 3261 ft | 228 kts | 186° |
| 2026-04-25 13:02 | 38.76013 | -77.04194 | 3579 ft | 244 kts | 215° |
| 2026-04-25 13:02 | 38.74931 | -77.05922 | 4049 ft | 256 kts | 250° |
| 2026-04-25 13:02 | 38.74608 | -77.08169 | 4850 ft | 257 kts | 265° |
| 2026-04-25 13:03 | 38.74496 | -77.10434 | 5624 ft | 261 kts | 267° |
| 2026-04-25 13:03 | 38.74398 | -77.12784 | 6388 ft | 264 kts | 267° |
| 2026-04-25 13:03 | 38.74291 | -77.15129 | 7151 ft | 265 kts | 266° |
| 2026-04-25 13:03 | 38.74159 | -77.17502 | 7921 ft | 268 kts | 265° |
| 2026-04-25 13:04 | 38.74017 | -77.19886 | 8663 ft | 271 kts | 265° |
| 2026-04-25 13:04 | 38.73869 | -77.22285 | 9419 ft | 273 kts | 265° |
| 2026-04-25 13:04 | 38.73743 | -77.24709 | 10144 ft | 277 kts | 270° |
| 2026-04-25 13:04 | 38.74053 | -77.27158 | 10442 ft | 296 kts | 284° |
| 2026-04-25 13:05 | 38.74658 | -77.29857 | 10608 ft | 319 kts | 285° |
| 2026-04-25 13:05 | 38.75292 | -77.32561 | 10790 ft | 339 kts | 285° |
| 2026-04-25 13:05 | 38.75988 | -77.35543 | 11167 ft | 352 kts | 285° |
| 2026-04-25 13:05 | 38.76681 | -77.38567 | 11765 ft | 357 kts | 285° |
| 2026-04-25 13:06 | 38.77371 | -77.41625 | 12434 ft | 359 kts | 285° |
| 2026-04-25 13:06 | 38.78057 | -77.44700 | 13111 ft | 362 kts | 285° |
| 2026-04-25 13:06 | 38.78750 | -77.47824 | 13767 ft | 365 kts | 285° |
| 2026-04-25 13:06 | 38.79431 | -77.50912 | 14316 ft | 368 kts | 285° |
| 2026-04-25 13:07 | 38.80137 | -77.54121 | 14875 ft | 371 kts | 285° |
| 2026-04-25 13:07 | 38.80786 | -77.57074 | 15385 ft | 374 kts | 285° |
| 2026-04-25 13:07 | 38.81505 | -77.60348 | 15962 ft | 377 kts | 285° |
| 2026-04-25 13:07 | 38.82205 | -77.63619 | 16507 ft | 379 kts | 283° |
| 2026-04-25 13:08 | 38.82656 | -77.66939 | 17038 ft | 383 kts | 277° |
| 2026-04-25 13:08 | 38.82946 | -77.70333 | 17556 ft | 386 kts | 276° |
| 2026-04-25 13:08 | 38.83205 | -77.73753 | 18074 ft | 389 kts | 276° |
| 2026-04-25 13:08 | 38.83482 | -77.77219 | 18535 ft | 392 kts | 276° |
| 2026-04-25 13:09 | 38.83783 | -77.80657 | 18984 ft | 394 kts | 277° |
| 2026-04-25 13:09 | 38.84103 | -77.84125 | 19428 ft | 396 kts | 277° |
| 2026-04-25 13:09 | 38.84435 | -77.87663 | 19888 ft | 398 kts | 277° |
| 2026-04-25 13:09 | 38.84683 | -77.91212 | 20315 ft | 401 kts | 273° |
| 2026-04-25 13:10 | 38.84795 | -77.94802 | 20747 ft | 404 kts | 272° |
| 2026-04-25 13:10 | 38.84864 | -77.98418 | 21174 ft | 406 kts | 271° |
| 2026-04-25 13:10 | 38.84930 | -78.02014 | 21586 ft | 409 kts | 271° |
| 2026-04-25 13:10 | 38.85009 | -78.05673 | 21995 ft | 411 kts | 272° |
| 2026-04-25 13:11 | 38.85068 | -78.08104 | 22280 ft | 413 kts | 272° |
| 2026-04-25 13:11 | 38.85198 | -78.13041 | 22813 ft | 416 kts | 272° |
| 2026-04-25 13:11 | 38.85297 | -78.16714 | 23195 ft | 418 kts | 272° |
| 2026-04-25 13:11 | 38.85396 | -78.20448 | 23566 ft | 420 kts | 272° |
| 2026-04-25 13:12 | 38.85442 | -78.24205 | 23906 ft | 421 kts | 270° |
| 2026-04-25 13:12 | 38.85409 | -78.27955 | 24265 ft | 422 kts | 269° |
| 2026-04-25 13:12 | 38.85347 | -78.31740 | 24616 ft | 423 kts | 269° |
| 2026-04-25 13:12 | 38.85325 | -78.33015 | 24733 ft | 423 kts | 269° |
| 2026-04-25 13:13 | 38.85248 | -78.37448 | 25100 ft | 425 kts | 269° |
| 2026-04-25 13:13 | 38.85227 | -78.38766 | 25224 ft | 426 kts | 269° |
| 2026-04-25 13:13 | 38.85185 | -78.41469 | 25453 ft | 426 kts | 269° |
| 2026-04-25 13:13 | 38.85131 | -78.45283 | 25754 ft | 428 kts | 269° |
| 2026-04-25 13:14 | 38.85081 | -78.49103 | 26053 ft | 429 kts | 269° |
| 2026-04-25 13:14 | 38.85032 | -78.52925 | 26352 ft | 431 kts | 269° |
| 2026-04-25 13:14 | 38.84983 | -78.56771 | 26686 ft | 431 kts | 269° |
| 2026-04-25 13:14 | 38.84933 | -78.60605 | 27124 ft | 429 kts | 269° |
| 2026-04-25 13:15 | 38.84899 | -78.63129 | 27442 ft | 426 kts | 269° |
| 2026-04-25 13:15 | 38.84830 | -78.68207 | 28037 ft | 424 kts | 269° |
| 2026-04-25 13:15 | 38.84778 | -78.71918 | 28424 ft | 423 kts | 269° |
| 2026-04-25 13:15 | 38.84723 | -78.75692 | 28807 ft | 422 kts | 269° |
| 2026-04-25 13:16 | 38.84668 | -78.79433 | 29227 ft | 421 kts | 269° |
| 2026-04-25 13:16 | 38.84612 | -78.83180 | 29656 ft | 419 kts | 269° |
| 2026-04-25 13:16 | 38.84554 | -78.86913 | 30030 ft | 418 kts | 269° |
| 2026-04-25 13:16 | 38.84496 | -78.90631 | 30394 ft | 416 kts | 269° |
| 2026-04-25 13:17 | 38.84437 | -78.94330 | 30801 ft | 412 kts | 269° |
| 2026-04-25 13:17 | 38.84377 | -78.97989 | 31222 ft | 409 kts | 269° |
| 2026-04-25 13:17 | 38.84317 | -79.01596 | 31680 ft | 404 kts | 269° |
| 2026-04-25 13:17 | 38.84256 | -79.05205 | 31862 ft | 405 kts | 269° |
| 2026-04-25 13:18 | 38.84131 | -79.12425 | 31898 ft | 404 kts | 269° |
| 2026-04-25 13:18 | 38.84004 | -79.19479 | 31875 ft | 403 kts | 269° |
| 2026-04-25 13:19 | 38.83874 | -79.26605 | 31874 ft | 401 kts | 269° |
| 2026-04-25 13:19 | 38.83762 | -79.32590 | 31878 ft | 400 kts | 268° |
| 2026-04-25 13:20 | 38.83603 | -79.40858 | 31885 ft | 400 kts | 268° |
| 2026-04-25 13:20 | 38.83462 | -79.47995 | 31913 ft | 400 kts | 268° |
| 2026-04-25 13:21 | 38.83316 | -79.55118 | 31907 ft | 400 kts | 268° |
| 2026-04-25 13:21 | 38.83165 | -79.62282 | 31922 ft | 401 kts | 268° |
| 2026-04-25 13:22 | 38.83011 | -79.69392 | 31915 ft | 403 kts | 268° |
| 2026-04-25 13:23 | 38.82769 | -79.80166 | 31924 ft | 404 kts | 268° |
| 2026-04-25 13:23 | 38.82601 | -79.87373 | 31926 ft | 405 kts | 268° |
| 2026-04-25 13:24 | 38.82431 | -79.94543 | 31927 ft | 405 kts | 268° |
| 2026-04-25 13:24 | 38.82254 | -80.01769 | 31919 ft | 406 kts | 268° |
| 2026-04-25 13:25 | 38.82074 | -80.09000 | 31911 ft | 406 kts | 268° |
| 2026-04-25 13:25 | 38.81888 | -80.16146 | 31907 ft | 406 kts | 267° |
| 2026-04-25 13:26 | 38.81691 | -80.23356 | 31886 ft | 406 kts | 267° |
| 2026-04-25 13:26 | 38.81491 | -80.30523 | 31885 ft | 406 kts | 267° |
| 2026-04-25 13:27 | 38.81287 | -80.37714 | 31871 ft | 406 kts | 267° |
| 2026-04-25 13:27 | 38.81076 | -80.44986 | 31866 ft | 405 kts | 267° |
| 2026-04-25 13:28 | 38.80863 | -80.52186 | 31872 ft | 405 kts | 267° |
| 2026-04-25 13:28 | 38.80732 | -80.56550 | 31867 ft | 405 kts | 267° |
| 2026-04-25 13:29 | 38.80514 | -80.63662 | 31866 ft | 405 kts | 267° |
| 2026-04-25 13:29 | 38.80289 | -80.70873 | 31867 ft | 404 kts | 266° |
| 2026-04-25 13:30 | 38.79944 | -80.81668 | 31860 ft | 404 kts | 266° |
| 2026-04-25 13:31 | 38.79590 | -80.92454 | 31859 ft | 404 kts | 266° |
| 2026-04-25 13:31 | 38.79350 | -80.99624 | 31866 ft | 403 kts | 266° |
| 2026-04-25 13:32 | 38.79104 | -81.06768 | 31870 ft | 403 kts | 266° |
| 2026-04-25 13:32 | 38.78854 | -81.13930 | 31874 ft | 402 kts | 266° |
| 2026-04-25 13:33 | 38.78600 | -81.21074 | 31871 ft | 402 kts | 266° |
| 2026-04-25 13:33 | 38.78345 | -81.28164 | 31874 ft | 402 kts | 266° |
| 2026-04-25 13:34 | 38.78083 | -81.35304 | 31872 ft | 402 kts | 266° |
| 2026-04-25 13:34 | 38.77816 | -81.42454 | 31879 ft | 402 kts | 266° |
| 2026-04-25 13:35 | 38.77546 | -81.49575 | 31876 ft | 401 kts | 266° |
| 2026-04-25 13:35 | 38.77272 | -81.56693 | 31882 ft | 402 kts | 266° |
| 2026-04-25 13:36 | 38.76992 | -81.63836 | 31881 ft | 401 kts | 265° |
| 2026-04-25 13:36 | 38.76709 | -81.70973 | 31885 ft | 401 kts | 265° |
| 2026-04-25 13:37 | 38.76420 | -81.78124 | 31914 ft | 405 kts | 265° |
| 2026-04-25 13:37 | 38.76123 | -81.85347 | 32187 ft | 411 kts | 265° |
| 2026-04-25 13:37 | 38.75973 | -81.88994 | 32531 ft | 408 kts | 265° |
| 2026-04-25 13:38 | 38.75823 | -81.92600 | 33001 ft | 403 kts | 265° |
| 2026-04-25 13:38 | 38.75674 | -81.96170 | 33407 ft | 400 kts | 265° |
| 2026-04-25 13:38 | 38.75523 | -81.99721 | 33710 ft | 398 kts | 265° |
| 2026-04-25 13:38 | 38.75373 | -82.03265 | 33883 ft | 399 kts | 265° |
| 2026-04-25 13:39 | 38.75234 | -82.06772 | 33872 ft | 402 kts | 265° |
| 2026-04-25 13:39 | 38.74973 | -82.13867 | 33884 ft | 399 kts | 265° |
| 2026-04-25 13:40 | 38.74711 | -82.20961 | 33889 ft | 397 kts | 265° |
| 2026-04-25 13:40 | 38.74447 | -82.27906 | 33891 ft | 395 kts | 265° |
| 2026-04-25 13:41 | 38.74211 | -82.33992 | 33896 ft | 394 kts | 265° |
| 2026-04-25 13:41 | 38.73958 | -82.40397 | 33904 ft | 394 kts | 265° |
| 2026-04-25 13:42 | 38.73677 | -82.47411 | 33913 ft | 394 kts | 265° |
| 2026-04-25 13:42 | 38.73392 | -82.54433 | 33914 ft | 396 kts | 264° |
| 2026-04-25 13:43 | 38.73101 | -82.61501 | 33928 ft | 398 kts | 264° |
| 2026-04-25 13:43 | 38.72908 | -82.66111 | 33915 ft | 399 kts | 264° |
| 2026-04-25 13:44 | 38.72608 | -82.73217 | 33923 ft | 400 kts | 264° |
| 2026-04-25 13:44 | 38.72306 | -82.80280 | 33927 ft | 401 kts | 264° |
| 2026-04-25 13:45 | 38.71996 | -82.87410 | 33917 ft | 401 kts | 264° |
| 2026-04-25 13:45 | 38.71683 | -82.94534 | 33918 ft | 401 kts | 263° |
| 2026-04-25 13:46 | 38.71365 | -83.01660 | 33925 ft | 400 kts | 263° |
| 2026-04-25 13:46 | 38.71045 | -83.08719 | 33915 ft | 399 kts | 263° |
| 2026-04-25 13:47 | 38.70720 | -83.15826 | 33916 ft | 398 kts | 263° |
| 2026-04-25 13:47 | 38.70393 | -83.22853 | 33899 ft | 397 kts | 263° |
| 2026-04-25 13:48 | 38.70061 | -83.29903 | 33914 ft | 396 kts | 263° |
| 2026-04-25 13:48 | 38.69727 | -83.36919 | 33915 ft | 395 kts | 262° |
| 2026-04-25 13:49 | 38.69388 | -83.43930 | 33926 ft | 394 kts | 262° |
| 2026-04-25 13:49 | 38.69048 | -83.50887 | 33936 ft | 393 kts | 262° |
| 2026-04-25 13:50 | 38.68713 | -83.57658 | 33952 ft | 392 kts | 262° |
| 2026-04-25 13:50 | 38.68364 | -83.64624 | 33963 ft | 392 kts | 262° |
| 2026-04-25 13:51 | 38.68014 | -83.71535 | 33964 ft | 393 kts | 262° |
| 2026-04-25 13:51 | 38.67656 | -83.78524 | 33963 ft | 393 kts | 262° |
| 2026-04-25 13:52 | 38.67296 | -83.85445 | 33959 ft | 394 kts | 262° |
| 2026-04-25 13:52 | 38.66926 | -83.92500 | 33954 ft | 394 kts | 262° |
| 2026-04-25 13:53 | 38.66555 | -83.99499 | 33947 ft | 395 kts | 262° |
| 2026-04-25 13:53 | 38.66182 | -84.06467 | 33942 ft | 395 kts | 261° |
| 2026-04-25 13:54 | 38.65802 | -84.13464 | 33924 ft | 395 kts | 261° |
| 2026-04-25 13:54 | 38.65419 | -84.20454 | 33915 ft | 395 kts | 261° |
| 2026-04-25 13:55 | 38.65030 | -84.27468 | 33920 ft | 395 kts | 261° |
| 2026-04-25 13:55 | 38.64639 | -84.34470 | 33918 ft | 395 kts | 261° |
| 2026-04-25 13:56 | 38.64262 | -84.41428 | 33924 ft | 396 kts | 263° |
| 2026-04-25 13:56 | 38.64643 | -84.48495 | 33920 ft | 401 kts | 270° |
| 2026-04-25 13:57 | 38.65228 | -84.55520 | 33929 ft | 400 kts | 270° |
| 2026-04-25 13:57 | 38.65799 | -84.62610 | 33921 ft | 400 kts | 270° |
| 2026-04-25 13:58 | 38.66345 | -84.69611 | 33913 ft | 400 kts | 269° |
| 2026-04-25 13:58 | 38.66659 | -84.73697 | 33923 ft | 400 kts | 269° |
| 2026-04-25 13:59 | 38.67200 | -84.80776 | 33924 ft | 400 kts | 269° |
| 2026-04-25 13:59 | 38.67731 | -84.87790 | 33928 ft | 400 kts | 269° |
| 2026-04-25 14:00 | 38.68174 | -84.93667 | 33929 ft | 400 kts | 269° |
| 2026-04-25 14:00 | 38.68790 | -85.01921 | 33930 ft | 401 kts | 269° |
| 2026-04-25 14:01 | 38.69316 | -85.09031 | 33940 ft | 401 kts | 269° |
| 2026-04-25 14:01 | 38.69839 | -85.16151 | 33952 ft | 402 kts | 269° |
| 2026-04-25 14:02 | 38.70271 | -85.23273 | 33962 ft | 402 kts | 267° |
| 2026-04-25 14:02 | 38.70621 | -85.30415 | 33970 ft | 402 kts | 267° |
| 2026-04-25 14:03 | 38.70970 | -85.37561 | 33987 ft | 402 kts | 267° |
| 2026-04-25 14:03 | 38.71327 | -85.44723 | 33980 ft | 403 kts | 267° |
| 2026-04-25 14:04 | 38.71682 | -85.51844 | 33986 ft | 404 kts | 267° |
| 2026-04-25 14:04 | 38.72038 | -85.59023 | 33981 ft | 404 kts | 266° |
| 2026-04-25 14:05 | 38.72388 | -85.66208 | 33968 ft | 405 kts | 266° |
| 2026-04-25 14:05 | 38.72734 | -85.73399 | 33958 ft | 405 kts | 266° |
| 2026-04-25 14:06 | 38.73077 | -85.80602 | 33945 ft | 405 kts | 266° |
| 2026-04-25 14:06 | 38.73412 | -85.87732 | 33934 ft | 405 kts | 266° |
| 2026-04-25 14:07 | 38.73746 | -85.94942 | 33919 ft | 404 kts | 267° |
| 2026-04-25 14:07 | 38.74074 | -86.02120 | 33931 ft | 404 kts | 267° |
| 2026-04-25 14:08 | 38.74398 | -86.09303 | 33943 ft | 403 kts | 267° |
| 2026-04-25 14:08 | 38.74716 | -86.16464 | 33947 ft | 403 kts | 267° |
| 2026-04-25 14:09 | 38.75028 | -86.23583 | 33957 ft | 403 kts | 268° |
| 2026-04-25 14:09 | 38.75337 | -86.30732 | 33965 ft | 402 kts | 268° |
| 2026-04-25 14:10 | 38.75643 | -86.37879 | 33976 ft | 401 kts | 268° |
| 2026-04-25 14:10 | 38.75943 | -86.45015 | 33976 ft | 401 kts | 268° |
| 2026-04-25 14:11 | 38.76240 | -86.52097 | 33969 ft | 400 kts | 268° |
| 2026-04-25 14:11 | 38.76535 | -86.59213 | 33970 ft | 400 kts | 268° |
| 2026-04-25 14:12 | 38.76824 | -86.66288 | 33958 ft | 399 kts | 269° |
| 2026-04-25 14:12 | 38.77105 | -86.73277 | 33942 ft | 399 kts | 269° |
| 2026-04-25 14:13 | 38.77385 | -86.80355 | 33957 ft | 398 kts | 269° |
| 2026-04-25 14:13 | 38.77567 | -86.84995 | 33959 ft | 398 kts | 269° |
| 2026-04-25 14:14 | 38.77841 | -86.92089 | 33966 ft | 397 kts | 269° |
| 2026-04-25 14:14 | 38.78109 | -86.99154 | 33978 ft | 397 kts | 269° |
| 2026-04-25 14:15 | 38.78372 | -87.06172 | 33971 ft | 397 kts | 269° |
| 2026-04-25 14:15 | 38.78632 | -87.13233 | 33977 ft | 397 kts | 269° |
| 2026-04-25 14:16 | 38.78888 | -87.20309 | 33976 ft | 397 kts | 269° |
| 2026-04-25 14:16 | 38.79139 | -87.27363 | 33973 ft | 396 kts | 269° |
| 2026-04-25 14:17 | 38.79386 | -87.34413 | 33974 ft | 396 kts | 269° |
| 2026-04-25 14:17 | 38.79627 | -87.41429 | 33970 ft | 396 kts | 269° |
| 2026-04-25 14:18 | 38.79865 | -87.48478 | 33986 ft | 396 kts | 269° |
| 2026-04-25 14:18 | 38.80100 | -87.55536 | 33978 ft | 396 kts | 269° |
| 2026-04-25 14:19 | 38.80330 | -87.62598 | 33984 ft | 396 kts | 269° |
| 2026-04-25 14:19 | 38.80553 | -87.69585 | 33986 ft | 396 kts | 269° |
| 2026-04-25 14:20 | 38.80774 | -87.76636 | 33956 ft | 396 kts | 269° |
| 2026-04-25 14:20 | 38.80990 | -87.83645 | 33958 ft | 396 kts | 269° |
| 2026-04-25 14:21 | 38.81203 | -87.90706 | 33959 ft | 396 kts | 270° |
| 2026-04-25 14:21 | 38.81412 | -87.97766 | 33982 ft | 397 kts | 270° |
| 2026-04-25 14:22 | 38.81617 | -88.04833 | 33983 ft | 397 kts | 270° |
| 2026-04-25 14:22 | 38.81816 | -88.11856 | 33988 ft | 397 kts | 270° |
| 2026-04-25 14:23 | 38.82011 | -88.18873 | 33995 ft | 398 kts | 270° |
| 2026-04-25 14:23 | 38.82203 | -88.25955 | 33986 ft | 398 kts | 270° |
| 2026-04-25 14:24 | 38.82392 | -88.33065 | 33986 ft | 398 kts | 270° |
| 2026-04-25 14:24 | 38.82575 | -88.40104 | 33987 ft | 398 kts | 270° |
| 2026-04-25 14:25 | 38.82755 | -88.47204 | 33983 ft | 399 kts | 270° |
| 2026-04-25 14:25 | 38.82931 | -88.54324 | 33981 ft | 399 kts | 270° |
| 2026-04-25 14:26 | 38.83102 | -88.61397 | 33977 ft | 399 kts | 270° |
| 2026-04-25 14:26 | 38.83270 | -88.68507 | 33974 ft | 399 kts | 270° |
| 2026-04-25 14:27 | 38.83432 | -88.75584 | 33975 ft | 399 kts | 270° |
| 2026-04-25 14:27 | 38.83591 | -88.82699 | 33979 ft | 400 kts | 270° |
| 2026-04-25 14:28 | 38.83744 | -88.89718 | 33981 ft | 400 kts | 270° |
| 2026-04-25 14:28 | 38.83852 | -88.94779 | 33984 ft | 400 kts | 270° |
| 2026-04-25 14:29 | 38.83999 | -89.01911 | 33981 ft | 400 kts | 270° |
| 2026-04-25 14:29 | 38.84142 | -89.09046 | 33980 ft | 400 kts | 270° |
| 2026-04-25 14:30 | 38.84258 | -89.14977 | 33979 ft | 400 kts | 270° |
| 2026-04-25 14:30 | 38.84483 | -89.26859 | 33968 ft | 401 kts | 270° |
| 2026-04-25 14:31 | 38.84613 | -89.33997 | 33965 ft | 401 kts | 270° |
| 2026-04-25 14:31 | 38.84738 | -89.41154 | 33971 ft | 401 kts | 270° |
| 2026-04-25 14:32 | 38.84859 | -89.48247 | 33970 ft | 401 kts | 270° |
| 2026-04-25 14:32 | 38.84976 | -89.55396 | 33969 ft | 401 kts | 270° |
| 2026-04-25 14:33 | 38.85089 | -89.62554 | 33978 ft | 401 kts | 270° |
| 2026-04-25 14:33 | 38.85197 | -89.69700 | 33981 ft | 401 kts | 270° |
| 2026-04-25 14:34 | 38.85300 | -89.76814 | 33992 ft | 401 kts | 270° |
| 2026-04-25 14:34 | 38.85400 | -89.83970 | 33998 ft | 401 kts | 270° |
| 2026-04-25 14:35 | 38.85495 | -89.91118 | 34008 ft | 401 kts | 270° |
| 2026-04-25 14:35 | 38.85586 | -89.98283 | 34004 ft | 401 kts | 270° |
| 2026-04-25 14:36 | 38.85672 | -90.05388 | 34008 ft | 401 kts | 270° |
| 2026-04-25 14:36 | 38.85755 | -90.12552 | 34011 ft | 402 kts | 270° |
| 2026-04-25 14:37 | 38.85833 | -90.19716 | 34004 ft | 402 kts | 270° |
| 2026-04-25 14:37 | 38.85906 | -90.26885 | 33995 ft | 402 kts | 270° |
| 2026-04-25 14:38 | 38.85976 | -90.34058 | 33993 ft | 402 kts | 270° |
| 2026-04-25 14:38 | 38.86041 | -90.41181 | 33990 ft | 402 kts | 270° |
| 2026-04-25 14:39 | 38.86050 | -90.48363 | 33990 ft | 402 kts | 265° |
| 2026-04-25 14:39 | 38.85223 | -90.55448 | 33989 ft | 402 kts | 260° |
| 2026-04-25 14:40 | 38.84273 | -90.62515 | 33988 ft | 402 kts | 260° |
| 2026-04-25 14:40 | 38.83341 | -90.69546 | 33984 ft | 402 kts | 260° |
| 2026-04-25 14:41 | 38.82412 | -90.76621 | 33984 ft | 403 kts | 260° |
| 2026-04-25 14:41 | 38.81483 | -90.83702 | 33982 ft | 403 kts | 260° |
| 2026-04-25 14:42 | 38.80859 | -90.88438 | 33981 ft | 403 kts | 260° |
| 2026-04-25 14:42 | 38.79609 | -90.97884 | 33981 ft | 404 kts | 260° |
| 2026-04-25 14:43 | 38.78957 | -91.02785 | 33984 ft | 404 kts | 260° |
| 2026-04-25 14:43 | 38.78009 | -91.09885 | 33984 ft | 404 kts | 260° |
| 2026-04-25 14:44 | 38.77055 | -91.16992 | 33977 ft | 405 kts | 260° |
| 2026-04-25 14:44 | 38.76097 | -91.24101 | 33978 ft | 405 kts | 260° |
| 2026-04-25 14:45 | 38.75134 | -91.31204 | 33973 ft | 405 kts | 260° |
| 2026-04-25 14:45 | 38.74173 | -91.38265 | 33972 ft | 405 kts | 260° |
| 2026-04-25 14:46 | 38.73200 | -91.45383 | 33974 ft | 405 kts | 260° |
| 2026-04-25 14:46 | 38.72223 | -91.52492 | 33968 ft | 406 kts | 260° |
| 2026-04-25 14:47 | 38.71577 | -91.57178 | 33970 ft | 405 kts | 259° |
| 2026-04-25 14:47 | 38.70265 | -91.66650 | 33966 ft | 405 kts | 259° |
| 2026-04-25 14:48 | 38.69278 | -91.73739 | 33966 ft | 405 kts | 259° |
| 2026-04-25 14:48 | 38.68270 | -91.80831 | 33968 ft | 405 kts | 259° |
| 2026-04-25 14:49 | 38.67250 | -91.87913 | 33978 ft | 404 kts | 259° |
| 2026-04-25 14:49 | 38.66228 | -91.94997 | 33979 ft | 404 kts | 259° |
| 2026-04-25 14:50 | 38.65214 | -92.02006 | 33987 ft | 404 kts | 259° |
| 2026-04-25 14:50 | 38.64186 | -92.09082 | 33993 ft | 404 kts | 259° |
| 2026-04-25 14:51 | 38.63153 | -92.16176 | 34075 ft | 411 kts | 259° |
| 2026-04-25 14:51 | 38.62631 | -92.19791 | 34252 ft | 412 kts | 259° |
| 2026-04-25 14:51 | 38.62115 | -92.23364 | 34548 ft | 409 kts | 259° |
| 2026-04-25 14:52 | 38.61598 | -92.26942 | 34857 ft | 407 kts | 259° |
| 2026-04-25 14:52 | 38.61092 | -92.30439 | 35101 ft | 406 kts | 259° |
| 2026-04-25 14:52 | 38.60579 | -92.33973 | 35300 ft | 406 kts | 260° |
| 2026-04-25 14:52 | 38.60238 | -92.36318 | 35453 ft | 405 kts | 260° |
| 2026-04-25 14:53 | 38.59547 | -92.41056 | 35772 ft | 404 kts | 260° |
| 2026-04-25 14:53 | 38.59032 | -92.44580 | 35972 ft | 403 kts | 260° |
| 2026-04-25 14:53 | 38.57994 | -92.51658 | 35962 ft | 406 kts | 260° |
| 2026-04-25 14:54 | 38.56961 | -92.58666 | 35954 ft | 402 kts | 260° |
| 2026-04-25 14:54 | 38.55928 | -92.65644 | 35958 ft | 399 kts | 260° |
| 2026-04-25 14:55 | 38.54896 | -92.72586 | 35959 ft | 396 kts | 260° |
| 2026-04-25 14:55 | 38.53863 | -92.79501 | 35962 ft | 395 kts | 260° |
| 2026-04-25 14:56 | 38.52830 | -92.86394 | 35962 ft | 395 kts | 260° |
| 2026-04-25 14:56 | 38.51805 | -92.93204 | 35967 ft | 397 kts | 260° |
| 2026-04-25 14:57 | 38.50752 | -93.00168 | 35970 ft | 398 kts | 260° |
| 2026-04-25 14:57 | 38.49695 | -93.07136 | 35966 ft | 400 kts | 260° |
| 2026-04-25 14:58 | 38.48935 | -93.12123 | 35967 ft | 401 kts | 260° |
| 2026-04-25 14:58 | 38.47871 | -93.19079 | 35971 ft | 403 kts | 260° |
| 2026-04-25 14:59 | 38.46796 | -93.26084 | 35976 ft | 404 kts | 260° |
| 2026-04-25 14:59 | 38.45711 | -93.33119 | 35979 ft | 404 kts | 260° |
| 2026-04-25 15:00 | 38.44621 | -93.40157 | 35980 ft | 403 kts | 260° |
| 2026-04-25 15:00 | 38.43533 | -93.47158 | 35977 ft | 402 kts | 260° |
| 2026-04-25 15:01 | 38.42448 | -93.54104 | 35953 ft | 401 kts | 260° |
| 2026-04-25 15:01 | 38.41357 | -93.61065 | 35960 ft | 399 kts | 260° |
| 2026-04-25 15:02 | 38.40267 | -93.67994 | 35960 ft | 398 kts | 260° |
| 2026-04-25 15:02 | 38.39177 | -93.74894 | 35961 ft | 397 kts | 260° |
| 2026-04-25 15:03 | 38.38093 | -93.81727 | 35960 ft | 395 kts | 260° |
| 2026-04-25 15:03 | 38.37001 | -93.88587 | 35955 ft | 394 kts | 260° |
| 2026-04-25 15:04 | 38.35907 | -93.95432 | 35943 ft | 394 kts | 260° |
| 2026-04-25 15:04 | 38.34811 | -94.02265 | 35938 ft | 394 kts | 260° |
| 2026-04-25 15:05 | 38.33706 | -94.09105 | 35940 ft | 394 kts | 260° |
| 2026-04-25 15:06 | 38.32045 | -94.19313 | 35938 ft | 394 kts | 260° |
| 2026-04-25 15:06 | 38.30928 | -94.26148 | 35927 ft | 395 kts | 260° |
| 2026-04-25 15:07 | 38.29804 | -94.33003 | 35928 ft | 395 kts | 259° |
| 2026-04-25 15:07 | 38.28687 | -94.39799 | 35933 ft | 396 kts | 259° |
| 2026-04-25 15:08 | 38.27554 | -94.46663 | 35915 ft | 396 kts | 259° |
| 2026-04-25 15:08 | 38.26450 | -94.53523 | 35908 ft | 396 kts | 261° |
| 2026-04-25 15:09 | 38.25390 | -94.60386 | 35905 ft | 395 kts | 261° |
| 2026-04-25 15:09 | 38.23795 | -94.70632 | 35896 ft | 395 kts | 260° |
| 2026-04-25 15:10 | 38.22718 | -94.77473 | 35906 ft | 394 kts | 260° |
| 2026-04-25 15:11 | 38.21098 | -94.87708 | 35901 ft | 393 kts | 260° |
| 2026-04-25 15:11 | 38.20016 | -94.94479 | 35900 ft | 393 kts | 260° |
| 2026-04-25 15:12 | 38.18386 | -95.04684 | 35895 ft | 393 kts | 260° |
| 2026-04-25 15:12 | 38.17657 | -95.09232 | 35900 ft | 392 kts | 260° |
| 2026-04-25 15:13 | 38.15970 | -95.19659 | 35896 ft | 392 kts | 260° |
| 2026-04-25 15:14 | 38.14862 | -95.26436 | 35899 ft | 392 kts | 260° |
| 2026-04-25 15:14 | 38.13752 | -95.33215 | 35892 ft | 392 kts | 260° |
| 2026-04-25 15:15 | 38.12638 | -95.39991 | 35892 ft | 392 kts | 260° |
| 2026-04-25 15:15 | 38.11519 | -95.46774 | 35897 ft | 392 kts | 260° |
| 2026-04-25 15:16 | 38.10397 | -95.53555 | 35898 ft | 392 kts | 260° |
| 2026-04-25 15:16 | 38.08714 | -95.63675 | 35900 ft | 393 kts | 260° |
| 2026-04-25 15:17 | 38.07013 | -95.73843 | 35899 ft | 393 kts | 259° |
| 2026-04-25 15:18 | 38.05885 | -95.80576 | 35895 ft | 393 kts | 259° |
| 2026-04-25 15:18 | 38.04168 | -95.90732 | 35882 ft | 393 kts | 259° |
| 2026-04-25 15:19 | 38.03398 | -95.95273 | 35882 ft | 393 kts | 259° |
| 2026-04-25 15:19 | 38.02066 | -96.03099 | 35872 ft | 393 kts | 259° |
| 2026-04-25 15:20 | 38.00712 | -96.11028 | 35874 ft | 393 kts | 259° |
| 2026-04-25 15:20 | 37.99549 | -96.17809 | 35871 ft | 394 kts | 259° |
| 2026-04-25 15:21 | 37.98580 | -96.23443 | 35864 ft | 394 kts | 259° |
| 2026-04-25 15:21 | 37.97412 | -96.30209 | 35866 ft | 393 kts | 259° |
| 2026-04-25 15:22 | 37.96239 | -96.36980 | 35867 ft | 393 kts | 259° |
| 2026-04-25 15:22 | 37.95064 | -96.43739 | 35862 ft | 393 kts | 259° |
| 2026-04-25 15:23 | 37.93893 | -96.50446 | 35866 ft | 392 kts | 259° |
| 2026-04-25 15:23 | 37.92715 | -96.57173 | 35872 ft | 392 kts | 259° |
| 2026-04-25 15:24 | 37.91532 | -96.63909 | 35875 ft | 391 kts | 259° |
| 2026-04-25 15:24 | 37.90548 | -96.69491 | 35880 ft | 390 kts | 259° |
| 2026-04-25 15:25 | 37.89163 | -96.77325 | 35886 ft | 389 kts | 259° |
| 2026-04-25 15:25 | 37.87985 | -96.83955 | 35887 ft | 389 kts | 259° |
| 2026-04-25 15:26 | 37.86795 | -96.90630 | 35883 ft | 388 kts | 259° |
| 2026-04-25 15:26 | 37.85609 | -96.97271 | 35880 ft | 387 kts | 259° |
| 2026-04-25 15:27 | 37.84423 | -97.03884 | 35865 ft | 387 kts | 259° |
| 2026-04-25 15:28 | 37.82643 | -97.13775 | 35867 ft | 385 kts | 259° |
| 2026-04-25 15:28 | 37.81787 | -97.18511 | 35871 ft | 385 kts | 259° |
| 2026-04-25 15:29 | 37.80595 | -97.25089 | 35870 ft | 384 kts | 259° |
| 2026-04-25 15:29 | 37.79398 | -97.31676 | 35871 ft | 383 kts | 259° |
| 2026-04-25 15:30 | 37.78210 | -97.38191 | 35868 ft | 383 kts | 258° |
| 2026-04-25 15:30 | 37.77013 | -97.44728 | 35874 ft | 382 kts | 258° |
| 2026-04-25 15:31 | 37.75813 | -97.51273 | 35885 ft | 382 kts | 258° |
| 2026-04-25 15:31 | 37.74609 | -97.57805 | 35866 ft | 382 kts | 258° |
| 2026-04-25 15:32 | 37.73389 | -97.64277 | 35867 ft | 381 kts | 258° |
| 2026-04-25 15:32 | 37.72140 | -97.70787 | 35864 ft | 381 kts | 258° |
| 2026-04-25 15:33 | 37.70269 | -97.80526 | 35846 ft | 380 kts | 258° |
| 2026-04-25 15:33 | 37.69020 | -97.87015 | 35850 ft | 380 kts | 258° |
| 2026-04-25 15:34 | 37.67778 | -97.93449 | 35844 ft | 380 kts | 258° |
| 2026-04-25 15:34 | 37.66736 | -97.98834 | 35837 ft | 380 kts | 258° |
| 2026-04-25 15:35 | 37.64640 | -98.09623 | 35843 ft | 379 kts | 258° |
| 2026-04-25 15:36 | 37.62758 | -98.19258 | 35840 ft | 379 kts | 258° |
| 2026-04-25 15:36 | 37.61493 | -98.25713 | 35836 ft | 379 kts | 258° |
| 2026-04-25 15:37 | 37.60227 | -98.32158 | 35838 ft | 379 kts | 258° |
| 2026-04-25 15:37 | 37.58952 | -98.38622 | 35853 ft | 379 kts | 257° |
| 2026-04-25 15:38 | 37.57680 | -98.45030 | 35865 ft | 380 kts | 257° |
| 2026-04-25 15:38 | 37.56391 | -98.51489 | 35877 ft | 380 kts | 257° |
| 2026-04-25 15:39 | 37.55099 | -98.57949 | 35885 ft | 380 kts | 257° |
| 2026-04-25 15:39 | 37.53803 | -98.64410 | 35890 ft | 381 kts | 257° |
| 2026-04-25 15:40 | 37.52722 | -98.69788 | 35890 ft | 381 kts | 257° |
| 2026-04-25 15:40 | 37.51208 | -98.77300 | 35885 ft | 381 kts | 257° |
| 2026-04-25 15:41 | 37.49899 | -98.83768 | 35877 ft | 381 kts | 257° |
| 2026-04-25 15:41 | 37.48587 | -98.90233 | 35865 ft | 381 kts | 257° |
| 2026-04-25 15:42 | 37.47271 | -98.96699 | 35849 ft | 381 kts | 257° |
| 2026-04-25 15:42 | 37.45961 | -99.03117 | 35831 ft | 381 kts | 257° |
| 2026-04-25 15:43 | 37.45019 | -99.07718 | 35815 ft | 381 kts | 257° |
| 2026-04-25 15:43 | 37.43694 | -99.14177 | 35816 ft | 381 kts | 257° |
| 2026-04-25 15:44 | 37.42367 | -99.20625 | 35818 ft | 381 kts | 257° |
| 2026-04-25 15:44 | 37.41046 | -99.27022 | 35819 ft | 380 kts | 257° |
| 2026-04-25 15:45 | 37.39713 | -99.33461 | 35815 ft | 380 kts | 257° |
| 2026-04-25 15:45 | 37.38602 | -99.38811 | 35818 ft | 380 kts | 257° |
| 2026-04-25 15:46 | 37.37038 | -99.46323 | 35815 ft | 380 kts | 257° |
| 2026-04-25 15:46 | 37.35705 | -99.52709 | 35811 ft | 380 kts | 257° |
| 2026-04-25 15:47 | 37.34360 | -99.59125 | 35810 ft | 380 kts | 257° |
| 2026-04-25 15:47 | 37.33010 | -99.65551 | 35810 ft | 380 kts | 257° |
| 2026-04-25 15:48 | 37.31658 | -99.71967 | 35805 ft | 380 kts | 257° |
| 2026-04-25 15:48 | 37.30313 | -99.78332 | 35801 ft | 380 kts | 257° |
| 2026-04-25 15:49 | 37.28956 | -99.84733 | 35794 ft | 380 kts | 257° |
| 2026-04-25 15:49 | 37.27594 | -99.91138 | 35799 ft | 379 kts | 257° |
| 2026-04-25 15:50 | 37.26231 | -99.97532 | 35793 ft | 379 kts | 257° |
| 2026-04-25 15:50 | 37.24864 | -100.03928 | 35791 ft | 379 kts | 257° |
| 2026-04-25 15:51 | 37.23727 | -100.09232 | 35784 ft | 379 kts | 257° |
| 2026-04-25 15:51 | 37.22138 | -100.16625 | 35784 ft | 379 kts | 257° |
| 2026-04-25 15:52 | 37.20756 | -100.23030 | 35777 ft | 379 kts | 257° |
| 2026-04-25 15:52 | 37.19381 | -100.29391 | 35777 ft | 378 kts | 257° |
| 2026-04-25 15:53 | 37.18010 | -100.35711 | 35775 ft | 378 kts | 257° |
| 2026-04-25 15:53 | 37.16628 | -100.42066 | 35763 ft | 377 kts | 257° |
| 2026-04-25 15:54 | 37.15246 | -100.48405 | 35770 ft | 377 kts | 257° |
| 2026-04-25 15:54 | 37.13862 | -100.54732 | 35776 ft | 376 kts | 257° |
| 2026-04-25 15:55 | 37.12486 | -100.61010 | 35804 ft | 376 kts | 257° |
| 2026-04-25 15:55 | 37.11098 | -100.67322 | 35825 ft | 376 kts | 257° |
| 2026-04-25 15:56 | 37.09708 | -100.73626 | 35843 ft | 375 kts | 257° |
| 2026-04-25 15:56 | 37.08317 | -100.79917 | 35873 ft | 375 kts | 257° |
| 2026-04-25 15:57 | 37.06931 | -100.86168 | 35890 ft | 375 kts | 257° |
| 2026-04-25 15:57 | 37.05534 | -100.92459 | 35886 ft | 375 kts | 257° |
| 2026-04-25 15:58 | 37.04573 | -100.96794 | 35890 ft | 374 kts | 258° |
| 2026-04-25 15:58 | 37.03606 | -101.03165 | 35895 ft | 373 kts | 262° |
| 2026-04-25 15:59 | 37.02779 | -101.09536 | 35875 ft | 373 kts | 262° |
| 2026-04-25 15:59 | 37.01936 | -101.15939 | 35869 ft | 373 kts | 262° |
| 2026-04-25 16:00 | 37.01221 | -101.21255 | 35868 ft | 374 kts | 262° |
| 2026-04-25 16:00 | 37.00200 | -101.28753 | 35880 ft | 374 kts | 262° |
| 2026-04-25 16:01 | 36.99324 | -101.35129 | 35880 ft | 374 kts | 262° |
| 2026-04-25 16:01 | 36.98440 | -101.41535 | 35881 ft | 374 kts | 262° |
| 2026-04-25 16:02 | 36.97551 | -101.47954 | 35873 ft | 374 kts | 262° |
| 2026-04-25 16:02 | 36.96659 | -101.54364 | 35859 ft | 374 kts | 262° |
| 2026-04-25 16:03 | 36.95764 | -101.60769 | 35892 ft | 374 kts | 262° |
| 2026-04-25 16:03 | 36.94872 | -101.67129 | 35909 ft | 373 kts | 262° |
| 2026-04-25 16:04 | 36.93973 | -101.73513 | 35939 ft | 373 kts | 262° |
| 2026-04-25 16:04 | 36.93072 | -101.79885 | 35944 ft | 372 kts | 262° |
| 2026-04-25 16:05 | 36.92168 | -101.86254 | 35946 ft | 372 kts | 262° |
| 2026-04-25 16:06 | 36.90814 | -101.95740 | 35944 ft | 371 kts | 262° |
| 2026-04-25 16:06 | 36.89906 | -102.02077 | 35916 ft | 370 kts | 262° |
| 2026-04-25 16:07 | 36.88994 | -102.08414 | 35905 ft | 370 kts | 262° |
| 2026-04-25 16:07 | 36.88086 | -102.14693 | 35884 ft | 370 kts | 262° |
| 2026-04-25 16:08 | 36.87170 | -102.21008 | 35849 ft | 369 kts | 262° |
| 2026-04-25 16:08 | 36.86252 | -102.27314 | 35830 ft | 369 kts | 262° |
| 2026-04-25 16:09 | 36.85330 | -102.33618 | 35806 ft | 369 kts | 262° |
| 2026-04-25 16:09 | 36.84412 | -102.39877 | 35808 ft | 369 kts | 262° |
| 2026-04-25 16:10 | 36.83485 | -102.46169 | 35803 ft | 369 kts | 262° |
| 2026-04-25 16:10 | 36.82555 | -102.52456 | 35809 ft | 369 kts | 262° |
| 2026-04-25 16:11 | 36.81621 | -102.58749 | 35806 ft | 368 kts | 262° |
| 2026-04-25 16:11 | 36.80692 | -102.64989 | 35801 ft | 368 kts | 262° |
| 2026-04-25 16:12 | 36.79753 | -102.71265 | 35801 ft | 368 kts | 262° |
| 2026-04-25 16:12 | 36.78811 | -102.77540 | 35802 ft | 368 kts | 262° |
| 2026-04-25 16:13 | 36.78026 | -102.82754 | 35803 ft | 368 kts | 262° |
| 2026-04-25 16:13 | 36.77214 | -102.88130 | 35803 ft | 368 kts | 261° |
| 2026-04-25 16:14 | 36.76270 | -102.94354 | 35803 ft | 368 kts | 261° |
| 2026-04-25 16:14 | 36.75317 | -103.00622 | 35821 ft | 368 kts | 261° |
| 2026-04-25 16:15 | 36.74361 | -103.06889 | 35832 ft | 368 kts | 261° |
| 2026-04-25 16:15 | 36.73434 | -103.13168 | 35840 ft | 368 kts | 262° |
| 2026-04-25 16:16 | 36.72609 | -103.19424 | 35846 ft | 368 kts | 263° |
| 2026-04-25 16:16 | 36.71785 | -103.25725 | 35840 ft | 369 kts | 262° |
| 2026-04-25 16:17 | 36.70951 | -103.32025 | 35830 ft | 369 kts | 262° |
| 2026-04-25 16:17 | 36.70106 | -103.38334 | 35816 ft | 369 kts | 262° |
| 2026-04-25 16:18 | 36.69261 | -103.44603 | 35806 ft | 370 kts | 262° |
| 2026-04-25 16:18 | 36.68406 | -103.50924 | 35802 ft | 370 kts | 262° |
| 2026-04-25 16:19 | 36.67547 | -103.57238 | 35798 ft | 370 kts | 262° |
| 2026-04-25 16:19 | 36.66682 | -103.63575 | 35803 ft | 371 kts | 262° |
| 2026-04-25 16:20 | 36.65384 | -103.73043 | 35799 ft | 372 kts | 262° |
| 2026-04-25 16:21 | 36.64069 | -103.82571 | 35795 ft | 373 kts | 262° |
| 2026-04-25 16:21 | 36.63186 | -103.88930 | 35793 ft | 373 kts | 262° |
| 2026-04-25 16:22 | 36.62305 | -103.95254 | 35787 ft | 373 kts | 262° |
| 2026-04-25 16:22 | 36.61416 | -104.01613 | 35788 ft | 374 kts | 262° |
| 2026-04-25 16:23 | 36.60520 | -104.07996 | 35779 ft | 374 kts | 262° |
| 2026-04-25 16:23 | 36.59621 | -104.14373 | 35797 ft | 374 kts | 262° |
| 2026-04-25 16:24 | 36.58718 | -104.20749 | 35819 ft | 374 kts | 262° |
| 2026-04-25 16:24 | 36.57819 | -104.27079 | 35836 ft | 375 kts | 262° |
| 2026-04-25 16:25 | 36.56906 | -104.33474 | 35848 ft | 375 kts | 262° |
| 2026-04-25 16:25 | 36.55993 | -104.39853 | 35857 ft | 375 kts | 262° |
| 2026-04-25 16:26 | 36.55080 | -104.46198 | 35862 ft | 375 kts | 262° |
| 2026-04-25 16:26 | 36.54161 | -104.52567 | 35855 ft | 374 kts | 262° |
| 2026-04-25 16:27 | 36.53238 | -104.58930 | 35837 ft | 374 kts | 262° |
| 2026-04-25 16:27 | 36.52316 | -104.65271 | 35820 ft | 373 kts | 262° |
| 2026-04-25 16:28 | 36.51545 | -104.70550 | 35800 ft | 373 kts | 262° |
| 2026-04-25 16:28 | 36.50751 | -104.75974 | 35786 ft | 372 kts | 262° |
| 2026-04-25 16:29 | 36.49821 | -104.82307 | 35757 ft | 372 kts | 262° |
| 2026-04-25 16:29 | 36.48804 | -104.88612 | 35794 ft | 373 kts | 257° |
| 2026-04-25 16:30 | 36.47364 | -104.94809 | 35843 ft | 374 kts | 256° |
| 2026-04-25 16:30 | 36.45889 | -105.00971 | 35913 ft | 374 kts | 256° |
| 2026-04-25 16:31 | 36.44412 | -105.07167 | 35970 ft | 375 kts | 256° |
| 2026-04-25 16:31 | 36.42939 | -105.13379 | 36026 ft | 375 kts | 256° |
| 2026-04-25 16:32 | 36.41463 | -105.19603 | 36062 ft | 375 kts | 256° |
| 2026-04-25 16:32 | 36.39987 | -105.25819 | 36067 ft | 376 kts | 256° |
| 2026-04-25 16:33 | 36.38515 | -105.32005 | 36050 ft | 377 kts | 256° |
| 2026-04-25 16:33 | 36.37027 | -105.38240 | 36054 ft | 377 kts | 256° |
| 2026-04-25 16:34 | 36.35535 | -105.44476 | 36019 ft | 377 kts | 256° |
| 2026-04-25 16:34 | 36.34043 | -105.50698 | 35973 ft | 376 kts | 256° |
| 2026-04-25 16:35 | 36.32558 | -105.56872 | 35932 ft | 376 kts | 256° |
| 2026-04-25 16:35 | 36.31062 | -105.63073 | 35885 ft | 375 kts | 256° |
| 2026-04-25 16:36 | 36.29570 | -105.69249 | 35838 ft | 374 kts | 256° |
| 2026-04-25 16:36 | 36.28076 | -105.75416 | 35831 ft | 373 kts | 256° |
| 2026-04-25 16:37 | 36.26583 | -105.81569 | 35814 ft | 372 kts | 256° |
| 2026-04-25 16:37 | 36.25100 | -105.87660 | 35816 ft | 372 kts | 256° |
| 2026-04-25 16:38 | 36.23605 | -105.93783 | 35800 ft | 371 kts | 256° |
| 2026-04-25 16:38 | 36.22107 | -105.99907 | 35800 ft | 372 kts | 256° |
| 2026-04-25 16:39 | 36.20612 | -106.05999 | 35799 ft | 372 kts | 256° |
| 2026-04-25 16:39 | 36.19106 | -106.12124 | 35826 ft | 373 kts | 256° |
| 2026-04-25 16:40 | 36.17590 | -106.18278 | 35847 ft | 374 kts | 256° |
| 2026-04-25 16:40 | 36.16069 | -106.24433 | 35873 ft | 374 kts | 256° |
| 2026-04-25 16:41 | 36.14542 | -106.30594 | 35884 ft | 375 kts | 256° |
| 2026-04-25 16:41 | 36.12251 | -106.39816 | 35878 ft | 375 kts | 256° |
| 2026-04-25 16:42 | 36.10715 | -106.45979 | 35877 ft | 376 kts | 256° |
| 2026-04-25 16:42 | 36.09175 | -106.52144 | 35867 ft | 375 kts | 256° |
| 2026-04-25 16:43 | 36.08123 | -106.56344 | 35859 ft | 375 kts | 256° |
| 2026-04-25 16:43 | 36.06589 | -106.62457 | 35846 ft | 375 kts | 256° |
| 2026-04-25 16:44 | 36.05045 | -106.68599 | 35831 ft | 374 kts | 256° |
| 2026-04-25 16:44 | 36.03501 | -106.74724 | 35842 ft | 373 kts | 256° |
| 2026-04-25 16:45 | 36.01955 | -106.80843 | 35841 ft | 373 kts | 256° |
| 2026-04-25 16:45 | 36.00408 | -106.86950 | 35849 ft | 372 kts | 256° |
| 2026-04-25 16:46 | 35.98871 | -106.93001 | 35844 ft | 372 kts | 256° |
| 2026-04-25 16:46 | 35.97835 | -106.97077 | 35841 ft | 372 kts | 256° |
| 2026-04-25 16:47 | 35.95772 | -107.05164 | 35845 ft | 371 kts | 256° |
| 2026-04-25 16:47 | 35.94224 | -107.11218 | 35847 ft | 370 kts | 256° |
| 2026-04-25 16:48 | 35.92683 | -107.17231 | 35845 ft | 370 kts | 256° |
| 2026-04-25 16:48 | 35.91130 | -107.23275 | 35849 ft | 370 kts | 256° |
| 2026-04-25 16:49 | 35.89579 | -107.29300 | 35845 ft | 370 kts | 256° |
| 2026-04-25 16:49 | 35.88019 | -107.35345 | 35846 ft | 370 kts | 256° |
| 2026-04-25 16:50 | 35.86464 | -107.41356 | 35850 ft | 370 kts | 256° |
| 2026-04-25 16:50 | 35.84899 | -107.47390 | 35848 ft | 371 kts | 256° |
| 2026-04-25 16:51 | 35.83323 | -107.53452 | 35843 ft | 371 kts | 256° |
| 2026-04-25 16:51 | 35.82281 | -107.57456 | 35844 ft | 371 kts | 256° |
| 2026-04-25 16:52 | 35.80177 | -107.65518 | 35826 ft | 372 kts | 256° |
| 2026-04-25 16:52 | 35.78590 | -107.71579 | 35824 ft | 372 kts | 256° |
| 2026-04-25 16:53 | 35.76204 | -107.80670 | 35813 ft | 372 kts | 255° |
| 2026-04-25 16:54 | 35.74606 | -107.86739 | 35810 ft | 372 kts | 255° |
| 2026-04-25 16:54 | 35.73026 | -107.92729 | 35803 ft | 372 kts | 256° |
| 2026-04-25 16:55 | 35.71428 | -107.98771 | 35797 ft | 372 kts | 255° |
| 2026-04-25 16:55 | 35.69827 | -108.04814 | 35793 ft | 371 kts | 255° |
| 2026-04-25 16:56 | 35.68243 | -108.10790 | 35787 ft | 371 kts | 256° |
| 2026-04-25 16:56 | 35.66639 | -108.16829 | 35789 ft | 371 kts | 255° |
| 2026-04-25 16:57 | 35.65044 | -108.22807 | 35785 ft | 371 kts | 255° |
| 2026-04-25 16:57 | 35.63486 | -108.28618 | 35771 ft | 371 kts | 255° |
| 2026-04-25 16:58 | 35.62140 | -108.33626 | 35772 ft | 371 kts | 255° |
| 2026-04-25 16:58 | 35.60930 | -108.38128 | 35775 ft | 370 kts | 255° |
| 2026-04-25 16:59 | 35.59314 | -108.44135 | 35826 ft | 370 kts | 255° |
| 2026-04-25 16:59 | 35.57698 | -108.50131 | 35882 ft | 370 kts | 255° |
| 2026-04-25 17:00 | 35.56079 | -108.56123 | 35928 ft | 370 kts | 255° |
| 2026-04-25 17:00 | 35.54469 | -108.62071 | 35986 ft | 369 kts | 255° |
| 2026-04-25 17:01 | 35.52843 | -108.68062 | 36043 ft | 369 kts | 255° |
| 2026-04-25 17:01 | 35.51218 | -108.74037 | 36045 ft | 370 kts | 255° |
| 2026-04-25 17:02 | 35.49598 | -108.79985 | 36045 ft | 370 kts | 255° |
| 2026-04-25 17:02 | 35.47964 | -108.85964 | 36043 ft | 370 kts | 255° |
| 2026-04-25 17:03 | 35.46612 | -108.92032 | 36018 ft | 368 kts | 259° |
| 2026-04-25 17:03 | 35.45417 | -108.98146 | 35965 ft | 368 kts | 259° |
| 2026-04-25 17:04 | 35.44219 | -109.04254 | 35924 ft | 369 kts | 259° |
| 2026-04-25 17:04 | 35.43017 | -109.10328 | 35924 ft | 369 kts | 259° |
| 2026-04-25 17:05 | 35.41797 | -109.16447 | 35905 ft | 370 kts | 259° |
| 2026-04-25 17:05 | 35.39953 | -109.25636 | 35861 ft | 370 kts | 258° |
| 2026-04-25 17:06 | 35.38722 | -109.31750 | 35838 ft | 370 kts | 258° |
| 2026-04-25 17:06 | 35.37496 | -109.37821 | 35821 ft | 370 kts | 258° |
| 2026-04-25 17:07 | 35.36258 | -109.43936 | 35829 ft | 369 kts | 258° |
| 2026-04-25 17:07 | 35.35016 | -109.50048 | 35822 ft | 369 kts | 258° |
| 2026-04-25 17:08 | 35.33774 | -109.56150 | 35819 ft | 369 kts | 258° |
| 2026-04-25 17:08 | 35.32537 | -109.62206 | 35814 ft | 369 kts | 258° |
| 2026-04-25 17:09 | 35.31292 | -109.68285 | 35828 ft | 368 kts | 258° |
| 2026-04-25 17:09 | 35.30045 | -109.74356 | 35823 ft | 368 kts | 258° |
| 2026-04-25 17:10 | 35.29005 | -109.79409 | 35819 ft | 368 kts | 258° |
| 2026-04-25 17:10 | 35.27539 | -109.86511 | 35824 ft | 368 kts | 258° |
| 2026-04-25 17:11 | 35.26294 | -109.92525 | 35831 ft | 367 kts | 258° |
| 2026-04-25 17:11 | 35.25036 | -109.98586 | 35828 ft | 367 kts | 258° |
| 2026-04-25 17:12 | 35.23803 | -110.04508 | 35833 ft | 367 kts | 258° |
| 2026-04-25 17:12 | 35.22540 | -110.10558 | 35829 ft | 367 kts | 258° |
| 2026-04-25 17:13 | 35.22161 | -110.12370 | 35828 ft | 367 kts | 258° |
| 2026-04-25 17:13 | 35.20549 | -110.20069 | 35831 ft | 367 kts | 257° |
| 2026-04-25 17:14 | 35.19286 | -110.26083 | 35828 ft | 367 kts | 258° |
| 2026-04-25 17:14 | 35.18012 | -110.32126 | 35831 ft | 367 kts | 258° |
| 2026-04-25 17:15 | 35.16737 | -110.38161 | 35858 ft | 367 kts | 258° |
| 2026-04-25 17:15 | 35.15457 | -110.44204 | 35886 ft | 367 kts | 257° |
| 2026-04-25 17:16 | 35.14172 | -110.50252 | 35910 ft | 367 kts | 257° |
| 2026-04-25 17:16 | 35.12894 | -110.56253 | 35932 ft | 368 kts | 257° |
| 2026-04-25 17:17 | 35.11602 | -110.62305 | 35961 ft | 368 kts | 257° |
| 2026-04-25 17:17 | 35.10306 | -110.68362 | 35978 ft | 368 kts | 257° |
| 2026-04-25 17:18 | 35.09014 | -110.74380 | 35980 ft | 368 kts | 257° |
| 2026-04-25 17:18 | 35.07774 | -110.80140 | 35980 ft | 368 kts | 257° |
| 2026-04-25 17:19 | 35.06484 | -110.86123 | 35963 ft | 368 kts | 257° |
| 2026-04-25 17:19 | 35.05184 | -110.92130 | 35935 ft | 368 kts | 257° |
| 2026-04-25 17:20 | 35.03878 | -110.98153 | 35908 ft | 368 kts | 257° |
| 2026-04-25 17:20 | 35.02574 | -111.04151 | 35892 ft | 368 kts | 257° |
| 2026-04-25 17:21 | 35.01261 | -111.10175 | 35846 ft | 368 kts | 257° |
| 2026-04-25 17:21 | 34.99943 | -111.16206 | 35819 ft | 367 kts | 257° |
| 2026-04-25 17:22 | 34.99060 | -111.20239 | 35820 ft | 367 kts | 257° |
| 2026-04-25 17:22 | 34.97304 | -111.28241 | 35830 ft | 367 kts | 257° |
| 2026-04-25 17:23 | 34.95990 | -111.34210 | 35864 ft | 367 kts | 257° |
| 2026-04-25 17:23 | 34.94664 | -111.40217 | 35894 ft | 367 kts | 256° |
| 2026-04-25 17:24 | 34.93343 | -111.46177 | 35907 ft | 367 kts | 256° |
| 2026-04-25 17:24 | 34.92009 | -111.52186 | 35918 ft | 367 kts | 256° |
| 2026-04-25 17:25 | 34.90679 | -111.58162 | 35954 ft | 367 kts | 256° |
| 2026-04-25 17:25 | 34.89342 | -111.64162 | 35981 ft | 368 kts | 256° |
| 2026-04-25 17:26 | 34.87996 | -111.70184 | 36009 ft | 368 kts | 256° |
| 2026-04-25 17:26 | 34.86647 | -111.76207 | 35999 ft | 369 kts | 256° |
| 2026-04-25 17:27 | 34.85296 | -111.82221 | 35989 ft | 368 kts | 255° |
| 2026-04-25 17:27 | 34.84402 | -111.86194 | 35995 ft | 367 kts | 255° |
| 2026-04-25 17:28 | 34.83027 | -111.92286 | 35984 ft | 365 kts | 255° |
| 2026-04-25 17:28 | 34.81684 | -111.98226 | 35938 ft | 363 kts | 255° |
| 2026-04-25 17:29 | 34.80348 | -112.04118 | 35916 ft | 361 kts | 255° |
| 2026-04-25 17:29 | 34.79022 | -112.09950 | 35883 ft | 359 kts | 254° |
| 2026-04-25 17:30 | 34.77691 | -112.15792 | 35868 ft | 356 kts | 254° |
| 2026-04-25 17:30 | 34.76367 | -112.21594 | 35919 ft | 358 kts | 254° |
| 2026-04-25 17:31 | 34.75020 | -112.27482 | 35957 ft | 365 kts | 254° |
| 2026-04-25 17:31 | 34.73648 | -112.33462 | 35986 ft | 370 kts | 254° |
| 2026-04-25 17:32 | 34.72283 | -112.39400 | 35980 ft | 362 kts | 254° |
| 2026-04-25 17:32 | 34.70933 | -112.45255 | 35987 ft | 360 kts | 254° |
| 2026-04-25 17:33 | 34.69883 | -112.51189 | 35996 ft | 360 kts | 260° |
| 2026-04-25 17:33 | 34.69189 | -112.57211 | 35962 ft | 361 kts | 261° |
| 2026-04-25 17:34 | 34.68499 | -112.63225 | 35932 ft | 362 kts | 260° |
| 2026-04-25 17:34 | 34.67789 | -112.69294 | 35899 ft | 363 kts | 260° |
| 2026-04-25 17:35 | 34.67070 | -112.75362 | 35872 ft | 363 kts | 260° |
| 2026-04-25 17:35 | 34.66346 | -112.81437 | 35842 ft | 364 kts | 260° |
| 2026-04-25 17:36 | 34.65621 | -112.87489 | 35811 ft | 365 kts | 260° |
| 2026-04-25 17:36 | 34.64886 | -112.93594 | 35818 ft | 365 kts | 260° |
| 2026-04-25 17:37 | 34.64150 | -112.99697 | 35811 ft | 365 kts | 260° |
| 2026-04-25 17:37 | 34.63412 | -113.05775 | 35808 ft | 365 kts | 259° |
| 2026-04-25 17:38 | 34.62921 | -113.09807 | 35814 ft | 365 kts | 260° |
| 2026-04-25 17:38 | 34.61926 | -113.17935 | 35813 ft | 365 kts | 259° |
| 2026-04-25 17:39 | 34.61175 | -113.24042 | 35813 ft | 366 kts | 259° |
| 2026-04-25 17:39 | 34.60419 | -113.30144 | 35794 ft | 366 kts | 259° |
| 2026-04-25 17:40 | 34.59668 | -113.36214 | 35807 ft | 365 kts | 259° |
| 2026-04-25 17:40 | 34.58911 | -113.42307 | 35798 ft | 365 kts | 259° |
| 2026-04-25 17:41 | 34.58149 | -113.48399 | 35807 ft | 365 kts | 259° |
| 2026-04-25 17:41 | 34.57386 | -113.54493 | 35805 ft | 366 kts | 259° |
| 2026-04-25 17:42 | 34.56618 | -113.60594 | 35796 ft | 366 kts | 259° |
| 2026-04-25 17:42 | 34.55874 | -113.66670 | 35799 ft | 366 kts | 260° |
| 2026-04-25 17:43 | 34.55459 | -113.70478 | 35805 ft | 367 kts | 260° |
| 2026-04-25 17:43 | 34.54802 | -113.76619 | 35794 ft | 367 kts | 260° |
| 2026-04-25 17:44 | 34.54140 | -113.82712 | 35793 ft | 367 kts | 260° |
| 2026-04-25 17:44 | 34.53464 | -113.88849 | 35795 ft | 368 kts | 260° |
| 2026-04-25 17:45 | 34.53007 | -113.92971 | 35796 ft | 368 kts | 260° |
| 2026-04-25 17:45 | 34.52096 | -114.01160 | 35802 ft | 368 kts | 259° |
| 2026-04-25 17:46 | 34.51327 | -114.07293 | 35821 ft | 367 kts | 256° |
| 2026-04-25 17:46 | 34.50085 | -114.13282 | 35830 ft | 366 kts | 253° |
| 2026-04-25 17:47 | 34.48769 | -114.19194 | 35830 ft | 366 kts | 253° |
| 2026-04-25 17:47 | 34.47471 | -114.25152 | 35840 ft | 366 kts | 254° |
| 2026-04-25 17:48 | 34.45547 | -114.34129 | 35843 ft | 367 kts | 254° |
| 2026-04-25 17:49 | 34.44276 | -114.40076 | 35837 ft | 367 kts | 254° |
| 2026-04-25 17:49 | 34.42998 | -114.46046 | 35829 ft | 366 kts | 254° |
| 2026-04-25 17:50 | 34.41718 | -114.52011 | 35821 ft | 366 kts | 253° |
| 2026-04-25 17:50 | 34.40435 | -114.57970 | 35810 ft | 366 kts | 253° |
| 2026-04-25 17:51 | 34.39158 | -114.63886 | 35810 ft | 365 kts | 253° |
| 2026-04-25 17:51 | 34.37871 | -114.69836 | 35794 ft | 365 kts | 253° |
| 2026-04-25 17:52 | 34.36582 | -114.75780 | 35798 ft | 365 kts | 253° |
| 2026-04-25 17:52 | 34.35290 | -114.81722 | 35785 ft | 364 kts | 253° |
| 2026-04-25 17:53 | 34.34002 | -114.87638 | 35815 ft | 364 kts | 253° |
| 2026-04-25 17:53 | 34.32714 | -114.93532 | 35808 ft | 365 kts | 253° |
| 2026-04-25 17:54 | 34.31407 | -114.99489 | 35811 ft | 367 kts | 253° |
| 2026-04-25 17:54 | 34.30097 | -115.05453 | 35810 ft | 368 kts | 253° |
| 2026-04-25 17:55 | 34.28780 | -115.11437 | 35812 ft | 368 kts | 253° |
| 2026-04-25 17:55 | 34.27470 | -115.17382 | 35818 ft | 369 kts | 253° |
| 2026-04-25 17:56 | 34.26160 | -115.23321 | 35810 ft | 369 kts | 253° |
| 2026-04-25 17:56 | 34.24880 | -115.29325 | 35830 ft | 369 kts | 253° |
| 2026-04-25 17:57 | 34.23604 | -115.35336 | 35818 ft | 369 kts | 253° |
| 2026-04-25 17:57 | 34.22325 | -115.41333 | 35827 ft | 368 kts | 253° |
| 2026-04-25 17:58 | 34.21477 | -115.45295 | 35825 ft | 368 kts | 253° |
| 2026-04-25 17:58 | 34.20263 | -115.50953 | 35821 ft | 366 kts | 253° |
| 2026-04-25 17:59 | 34.18987 | -115.56889 | 35850 ft | 366 kts | 253° |
| 2026-04-25 17:59 | 34.17701 | -115.62849 | 35836 ft | 366 kts | 253° |
| 2026-04-25 18:00 | 34.16634 | -115.67783 | 35852 ft | 367 kts | 253° |
| 2026-04-25 18:00 | 34.15717 | -115.74865 | 35846 ft | 370 kts | 261° |
| 2026-04-25 18:01 | 34.15190 | -115.81057 | 35874 ft | 370 kts | 261° |
| 2026-04-25 18:01 | 34.14627 | -115.87152 | 35881 ft | 365 kts | 260° |
| 2026-04-25 18:02 | 34.14043 | -115.93196 | 35904 ft | 360 kts | 260° |
| 2026-04-25 18:02 | 34.13753 | -115.96155 | 35757 ft | 362 kts | 260° |
| 2026-04-25 18:02 | 34.13457 | -115.99170 | 35445 ft | 359 kts | 260° |
| 2026-04-25 18:02 | 34.13165 | -116.02150 | 34990 ft | 356 kts | 260° |
| 2026-04-25 18:03 | 34.12876 | -116.05106 | 34576 ft | 353 kts | 260° |
| 2026-04-25 18:03 | 34.12589 | -116.08031 | 34171 ft | 350 kts | 260° |
| 2026-04-25 18:03 | 34.12400 | -116.09959 | 33864 ft | 349 kts | 260° |
| 2026-04-25 18:03 | 34.12019 | -116.13821 | 33267 ft | 345 kts | 260° |
| 2026-04-25 18:04 | 34.11736 | -116.16682 | 32837 ft | 342 kts | 260° |
| 2026-04-25 18:04 | 34.11550 | -116.18563 | 32564 ft | 340 kts | 260° |
| 2026-04-25 18:04 | 34.11271 | -116.21380 | 32169 ft | 337 kts | 260° |
| 2026-04-25 18:04 | 34.10904 | -116.25076 | 31636 ft | 334 kts | 260° |
| 2026-04-25 18:05 | 34.10627 | -116.27845 | 31243 ft | 331 kts | 260° |
| 2026-04-25 18:05 | 34.10440 | -116.29714 | 30991 ft | 330 kts | 260° |
| 2026-04-25 18:05 | 34.10153 | -116.32484 | 30240 ft | 338 kts | 260° |
| 2026-04-25 18:05 | 34.09747 | -116.36260 | 29274 ft | 346 kts | 260° |
| 2026-04-25 18:06 | 34.09542 | -116.38170 | 28897 ft | 346 kts | 260° |
| 2026-04-25 18:06 | 34.09235 | -116.41024 | 28407 ft | 344 kts | 260° |
| 2026-04-25 18:06 | 34.08930 | -116.43867 | 27978 ft | 340 kts | 260° |
| 2026-04-25 18:06 | 34.08628 | -116.46682 | 27582 ft | 336 kts | 260° |
| 2026-04-25 18:07 | 34.08332 | -116.49429 | 27195 ft | 333 kts | 260° |
| 2026-04-25 18:07 | 34.08035 | -116.52189 | 26806 ft | 330 kts | 260° |
| 2026-04-25 18:07 | 34.07740 | -116.54918 | 26417 ft | 327 kts | 260° |
| 2026-04-25 18:07 | 34.07447 | -116.57626 | 26043 ft | 324 kts | 261° |
| 2026-04-25 18:08 | 34.07162 | -116.60325 | 25420 ft | 328 kts | 261° |
| 2026-04-25 18:08 | 34.06906 | -116.63046 | 24930 ft | 330 kts | 261° |
| 2026-04-25 18:08 | 34.06656 | -116.65802 | 24494 ft | 330 kts | 262° |
| 2026-04-25 18:08 | 34.06408 | -116.68545 | 24112 ft | 328 kts | 262° |
| 2026-04-25 18:09 | 34.06160 | -116.71265 | 23733 ft | 326 kts | 261° |
| 2026-04-25 18:09 | 34.05909 | -116.73975 | 23339 ft | 325 kts | 262° |
| 2026-04-25 18:09 | 34.05658 | -116.76673 | 22927 ft | 322 kts | 261° |
| 2026-04-25 18:09 | 34.05493 | -116.78443 | 22661 ft | 321 kts | 261° |
| 2026-04-25 18:10 | 34.05161 | -116.81995 | 22172 ft | 317 kts | 261° |
| 2026-04-25 18:10 | 34.04913 | -116.84623 | 21831 ft | 314 kts | 262° |
| 2026-04-25 18:10 | 34.04667 | -116.87225 | 21482 ft | 311 kts | 261° |
| 2026-04-25 18:10 | 34.04413 | -116.89805 | 21094 ft | 310 kts | 260° |
| 2026-04-25 18:11 | 34.04088 | -116.92375 | 20691 ft | 310 kts | 259° |
| 2026-04-25 18:11 | 34.03746 | -116.94904 | 20307 ft | 309 kts | 259° |
| 2026-04-25 18:11 | 34.03406 | -116.97448 | 19963 ft | 307 kts | 259° |
| 2026-04-25 18:11 | 34.03073 | -116.99979 | 19614 ft | 306 kts | 259° |
| 2026-04-25 18:12 | 34.02743 | -117.02503 | 19274 ft | 304 kts | 259° |
| 2026-04-25 18:12 | 34.02430 | -117.05013 | 18922 ft | 302 kts | 260° |
| 2026-04-25 18:12 | 34.02134 | -117.07519 | 18579 ft | 301 kts | 260° |
| 2026-04-25 18:12 | 34.01843 | -117.10006 | 18240 ft | 299 kts | 260° |
| 2026-04-25 18:13 | 34.01653 | -117.11630 | 17977 ft | 298 kts | 260° |
| 2026-04-25 18:13 | 34.01465 | -117.13229 | 17738 ft | 297 kts | 260° |
| 2026-04-25 18:13 | 34.01178 | -117.15658 | 17396 ft | 294 kts | 260° |
| 2026-04-25 18:14 | 34.00603 | -117.20493 | 16731 ft | 289 kts | 260° |
| 2026-04-25 18:14 | 34.00318 | -117.22875 | 16413 ft | 286 kts | 260° |
| 2026-04-25 18:14 | 34.00035 | -117.25240 | 16058 ft | 284 kts | 260° |
| 2026-04-25 18:14 | 33.99754 | -117.27587 | 15735 ft | 281 kts | 260° |
| 2026-04-25 18:15 | 33.99475 | -117.29911 | 15392 ft | 279 kts | 259° |
| 2026-04-25 18:15 | 33.99200 | -117.32215 | 15090 ft | 277 kts | 260° |
| 2026-04-25 18:15 | 33.98930 | -117.34510 | 14770 ft | 276 kts | 260° |
| 2026-04-25 18:15 | 33.98667 | -117.36757 | 14463 ft | 274 kts | 259° |
| 2026-04-25 18:16 | 33.98401 | -117.39027 | 14141 ft | 273 kts | 259° |
| 2026-04-25 18:16 | 33.98135 | -117.41286 | 13842 ft | 273 kts | 259° |
| 2026-04-25 18:16 | 33.97597 | -117.45842 | 13129 ft | 274 kts | 259° |
| 2026-04-25 18:17 | 33.97338 | -117.48112 | 12800 ft | 272 kts | 262° |
| 2026-04-25 18:17 | 33.97463 | -117.50371 | 12479 ft | 274 kts | 277° |
| 2026-04-25 18:17 | 33.97871 | -117.52623 | 12154 ft | 272 kts | 278° |
| 2026-04-25 18:17 | 33.98281 | -117.54836 | 11855 ft | 271 kts | 278° |
| 2026-04-25 18:18 | 33.98682 | -117.57023 | 11552 ft | 269 kts | 278° |
| 2026-04-25 18:18 | 33.99076 | -117.59202 | 11239 ft | 267 kts | 278° |
| 2026-04-25 18:18 | 33.99458 | -117.61341 | 10935 ft | 266 kts | 279° |
| 2026-04-25 18:18 | 33.99846 | -117.63529 | 10626 ft | 264 kts | 279° |
| 2026-04-25 18:19 | 34.00230 | -117.65703 | 10331 ft | 263 kts | 279° |
| 2026-04-25 18:19 | 34.00595 | -117.67822 | 10217 ft | 254 kts | 276° |
| 2026-04-25 18:19 | 34.00577 | -117.69898 | 10088 ft | 243 kts | 261° |
| 2026-04-25 18:19 | 34.00365 | -117.71896 | 9848 ft | 241 kts | 262° |
| 2026-04-25 18:20 | 34.00159 | -117.73899 | 9595 ft | 240 kts | 262° |
| 2026-04-25 18:20 | 33.99954 | -117.75913 | 9314 ft | 244 kts | 262° |
| 2026-04-25 18:20 | 33.99748 | -117.77963 | 9014 ft | 250 kts | 262° |
| 2026-04-25 18:20 | 33.99549 | -117.79973 | 8699 ft | 252 kts | 262° |
| 2026-04-25 18:21 | 33.99351 | -117.81978 | 8423 ft | 252 kts | 262° |
| 2026-04-25 18:21 | 33.99144 | -117.84104 | 8138 ft | 250 kts | 263° |
| 2026-04-25 18:21 | 33.98941 | -117.86195 | 7867 ft | 250 kts | 263° |
| 2026-04-25 18:21 | 33.98738 | -117.88273 | 7573 ft | 251 kts | 263° |
| 2026-04-25 18:22 | 33.98543 | -117.90280 | 7296 ft | 250 kts | 263° |
| 2026-04-25 18:22 | 33.98406 | -117.91677 | 7104 ft | 249 kts | 263° |
| 2026-04-25 18:22 | 33.98133 | -117.94447 | 6742 ft | 247 kts | 263° |
| 2026-04-25 18:22 | 33.97931 | -117.96496 | 6478 ft | 247 kts | 263° |
| 2026-04-25 18:23 | 33.97732 | -117.98509 | 6194 ft | 246 kts | 263° |
| 2026-04-25 18:23 | 33.97531 | -118.00549 | 5902 ft | 245 kts | 263° |
| 2026-04-25 18:23 | 33.97331 | -118.02565 | 5613 ft | 245 kts | 262° |
| 2026-04-25 18:23 | 33.97135 | -118.04544 | 5352 ft | 245 kts | 262° |
| 2026-04-25 18:24 | 33.96936 | -118.06545 | 5086 ft | 244 kts | 262° |
| 2026-04-25 18:24 | 33.96733 | -118.08577 | 4779 ft | 245 kts | 262° |
| 2026-04-25 18:24 | 33.96531 | -118.10615 | 4450 ft | 246 kts | 261° |
| 2026-04-25 18:24 | 33.96328 | -118.12673 | 4138 ft | 247 kts | 262° |
| 2026-04-25 18:25 | 33.96151 | -118.14709 | 3956 ft | 243 kts | 261° |
| 2026-04-25 18:25 | 33.95955 | -118.16732 | 3625 ft | 244 kts | 261° |
| 2026-04-25 18:25 | 33.95748 | -118.18748 | 3335 ft | 246 kts | 261° |
| 2026-04-25 18:25 | 33.95535 | -118.20791 | 3001 ft | 244 kts | 260° |
| 2026-04-25 18:26 | 33.95329 | -118.22777 | 2691 ft | 235 kts | 261° |
| 2026-04-25 18:26 | 33.95133 | -118.24680 | 2374 ft | 220 kts | 261° |
| 2026-04-25 18:26 | 33.94954 | -118.26426 | 2089 ft | 200 kts | 260° |
| 2026-04-25 18:26 | 33.94791 | -118.28000 | 1834 ft | 182 kts | 260° |
| 2026-04-25 18:27 | 33.94644 | -118.29433 | 1631 ft | 166 kts | 260° |
| 2026-04-25 18:27 | 33.94512 | -118.30709 | 1374 ft | 150 kts | 260° |
| 2026-04-25 18:27 | 33.94386 | -118.31930 | 1184 ft | 145 kts | 261° |
| 2026-04-25 18:27 | 33.94265 | -118.33115 | 1004 ft | 143 kts | 259° |
| 2026-04-25 18:28 | 33.94224 | -118.33498 | 941 ft | 143 kts | 261° |
| 2026-04-25 18:28 | 33.94131 | -118.34404 | 774 ft | 140 kts | 260° |
| 2026-04-25 18:28 | 33.94015 | -118.35559 | 604 ft | 142 kts | 261° |
| 2026-04-25 18:29 | 33.93775 | -118.37951 | 210 ft | 143 kts | 259° |
| 2026-04-25 18:29 | 33.93649 | -118.39136 | 107 ft | 132 kts | 262° |
| 2026-04-25 18:30 | 33.93562 | -118.40549 | 109 ft | 27 kts | 292° |
| 2026-04-25 18:30 | 33.93595 | -118.40735 | 105 ft | 14 kts | 267° |
| 2026-04-25 18:30 | 33.93598 | -118.40817 | 103 ft | 6 kts | 288° |
| 2026-04-25 18:30 | 33.93605 | -118.40838 | 104 ft | 0 kts | 292° |
| 2026-04-25 18:31 | 33.93606 | -118.40840 | 104 ft | 2 kts | 292° |
| 2026-04-25 18:31 | 33.93639 | -118.40889 | 106 ft | 13 kts | 331° |
| 2026-04-25 18:32 | 33.93730 | -118.40906 | 105 ft | 12 kts | 353° |
| 2026-04-25 18:32 | 33.93789 | -118.40852 | 101 ft | 12 kts | 88° |
| 2026-04-25 18:32 | 33.93799 | -118.40768 | 102 ft | 6 kts | 76° |
| 2026-04-25 18:32 | 33.93806 | -118.40718 | 101 ft | 6 kts | 84° |
| 2026-04-25 18:33 | 33.93810 | -118.40668 | 100 ft | 6 kts | 83° |
| 2026-04-25 18:33 | 33.93815 | -118.40618 | 102 ft | 7 kts | 83° |
| 2026-04-25 18:33 | 33.93823 | -118.40525 | 102 ft | 17 kts | 85° |
| 2026-04-25 18:33 | 33.93838 | -118.40384 | 103 ft | 15 kts | 83° |
| 2026-04-25 18:34 | 33.93856 | -118.40296 | 101 ft | 7 kts | 31° |
| 2026-04-25 18:34 | 33.93924 | -118.40294 | 99 ft | 12 kts | 354° |
| 2026-04-25 18:34 | 33.94014 | -118.40311 | 95 ft | 13 kts | 351° |
| 2026-04-25 18:34 | 33.94090 | -118.40323 | 94 ft | 10 kts | 353° |
| 2026-04-25 18:35 | 33.94155 | -118.40332 | 96 ft | 5 kts | 353° |
| 2026-04-25 18:35 | 33.94180 | -118.40315 | 97 ft | 2 kts | 70° |
| 2026-04-25 18:35 | 33.94182 | -118.40301 | 95 ft | 2 kts | 80° |
| 2026-04-25 18:35 | 33.94183 | -118.40287 | 96 ft | 2 kts | 83° |
| 2026-04-25 18:36 | 33.94184 | -118.40277 | 97 ft | 0 kts | 83° |
| 2026-04-25 18:36 | 33.94184 | -118.40276 | 97 ft | 0 kts | 83° |